Time;durP1;ratioP1;P1;durP2;ratioP2;P2;SDS_P1;SDS_P2;PMS_P1;PMS_P2;Temp;Humidity;BMP_temperature;BMP_pressure;BME280_temperature;BME280_humidity;BME280_pressure;Samples;Min_cycle;Max_cycle;Signal;HPM_P1;HPM_P2
2021/06/10 00:00:13;;;;;;;7.25;5.20;;;;;;;18.50;62.77;98863.91;5095763;28;20075;-76
2021/06/10 00:02:40;;;;;;;5.95;4.97;;;;;;;18.50;62.49;98869.31;5095592;28;20383;-75
2021/06/10 00:05:07;;;;;;;10.57;5.55;;;;;;;18.49;62.74;98866.81;5095608;28;20046;-75
2021/06/10 00:07:33;;;;;;;8.57;5.13;;;;;;;18.45;62.61;98867.16;5078285;28;20494;-75
2021/06/10 00:09:59;;;;;;;6.90;5.50;;;;;;;18.49;63.05;98875.75;5078607;28;20088;-75
2021/06/10 00:12:25;;;;;;;8.65;5.35;;;;;;;18.43;63.09;98874.66;5045117;28;20043;-76
2021/06/10 00:14:51;;;;;;;14.25;5.38;;;;;;;18.47;63.10;98877.84;5095370;28;20328;-76
2021/06/10 00:17:17;;;;;;;6.32;5.43;;;;;;;18.56;62.86;98884.00;5078352;28;20096;-75
2021/06/10 00:19:43;;;;;;;8.82;5.55;;;;;;;18.59;63.04;98879.06;5095393;28;20457;-74
2021/06/10 00:22:09;;;;;;;7.32;5.45;;;;;;;18.49;63.00;98872.22;5078436;28;20048;-74
2021/06/10 00:24:35;;;;;;;8.88;5.78;;;;;;;18.57;62.93;98889.22;5045501;28;20512;-75
2021/06/10 00:27:00;;;;;;;10.55;5.70;;;;;;;18.55;62.76;98877.75;5113704;28;20047;-76
2021/06/10 00:29:26;;;;;;;7.38;5.70;;;;;;;18.61;62.90;98882.41;5095223;28;20152;-76
2021/06/10 00:31:52;;;;;;;8.63;5.97;;;;;;;18.64;62.99;98876.63;5095052;28;20039;-75
2021/06/10 00:34:18;;;;;;;7.75;6.13;;;;;;;18.67;62.85;98884.38;5045160;28;20067;-75
2021/06/10 00:36:44;;;;;;;7.70;5.95;;;;;;;18.69;62.60;98890.44;5095158;28;20413;-76
2021/06/10 00:39:10;;;;;;;12.57;6.53;;;;;;;18.73;62.74;98893.66;5061483;28;20035;-75
2021/06/10 00:41:36;;;;;;;7.05;5.70;;;;;;;18.77;62.36;98892.25;5078303;28;20051;-76
2021/06/10 00:44:05;;;;;;;10.25;7.07;;;;;;;18.81;62.33;98884.59;5061447;28;20061;-76
2021/06/10 00:46:31;;;;;;;7.72;6.13;;;;;;;18.84;62.22;98885.06;5061748;28;20089;-76
2021/06/10 00:48:57;;;;;;;10.07;6.13;;;;;;;18.89;62.07;98890.75;5094727;28;20521;-75
2021/06/10 00:51:22;;;;;;;10.43;6.20;;;;;;;18.88;62.30;98896.34;5112771;28;20126;-76
2021/06/10 00:53:49;;;;;;;7.55;6.28;;;;;;;18.79;62.25;98886.66;5113189;28;20371;-76
2021/06/10 00:56:14;;;;;;;10.73;6.03;;;;;;;18.84;62.14;98903.16;5078295;28;20452;-76
2021/06/10 00:58:40;;;;;;;11.65;6.55;;;;;;;18.87;61.89;98902.81;5113986;28;20035;-75
2021/06/10 01:01:07;;;;;;;11.98;7.20;;;;;;;18.76;62.37;98906.81;5119722;27;20105;-76
2021/06/10 01:03:35;;;;;;;16.13;7.03;;;;;;;18.58;63.33;98896.31;5119696;28;20047;-76
2021/06/10 01:06:10;;;;;;;9.10;6.22;;;;;;;18.58;63.12;98898.16;5067568;27;20092;-76
2021/06/10 01:08:36;;;;;;;8.98;6.45;;;;;;;18.35;63.95;98890.94;5069454;28;20035;-76
2021/06/10 01:11:31;;;;;;;13.05;6.60;;;;;;;18.47;63.54;98896.78;5119775;28;20047;-75
2021/06/10 01:14:06;;;;;;;20.88;7.82;;;;;;;18.59;63.23;98892.59;5101519;28;20050;-76
2021/06/10 01:16:33;;;;;;;10.73;6.72;;;;;;;18.64;63.12;98892.03;5101475;28;20039;-75
2021/06/10 01:19:01;;;;;;;13.60;6.63;;;;;;;18.71;62.97;98894.88;5051217;28;20490;-76
2021/06/10 01:21:27;;;;;;;13.18;6.72;;;;;;;18.76;62.79;98895.97;5101569;28;20039;-75
2021/06/10 01:24:05;;;;;;;12.35;6.80;;;;;;;18.81;62.89;98898.16;5101419;28;20126;-75
2021/06/10 01:26:30;;;;;;;9.40;7.35;;;;;;;18.79;62.63;98897.47;5084744;28;20074;-77
2021/06/10 01:28:57;;;;;;;10.60;6.50;;;;;;;18.72;62.72;98888.41;5084268;28;20070;-76
2021/06/10 01:39:00;;;;;;;4.57;4.18;;;;;;;18.84;61.60;98893.19;5119085;28;20103;-76
2021/06/10 01:41:27;;;;;;;14.32;5.05;;;;;;;18.90;61.29;98907.84;5100927;28;20074;-76
2021/06/10 01:43:53;;;;;;;11.32;5.35;;;;;;;18.99;60.96;98901.28;5101161;28;20047;-76
2021/06/10 01:46:22;;;;;;;7.65;5.22;;;;;;;18.93;62.22;98902.06;5100977;28;20046;-76
2021/06/10 01:48:48;;;;;;;13.73;5.88;;;;;;;18.87;62.60;98911.75;5084384;28;20046;-76
2021/06/10 01:51:17;;;;;;;13.43;5.93;;;;;;;18.73;63.53;98911.75;5101325;28;20055;-78
2021/06/10 01:53:44;;;;;;;14.02;6.00;;;;;;;18.63;63.74;98906.59;5064556;28;20079;-77
2021/06/10 01:56:10;;;;;;;13.55;6.40;;;;;;;18.71;63.42;98916.53;5063751;28;20040;-75
2021/06/10 01:58:39;;;;;;;14.85;7.18;;;;;;;18.71;63.98;98913.81;5080804;28;20059;-77
2021/06/10 02:01:05;;;;;;;11.55;6.32;;;;;;;18.67;64.11;98911.44;5047448;28;20040;-76
2021/06/10 02:03:31;;;;;;;14.18;6.65;;;;;;;18.76;63.79;98911.38;5097190;28;20438;-75
2021/06/10 02:05:58;;;;;;;15.00;6.22;;;;;;;18.84;63.90;98914.00;5063984;28;20380;-76
2021/06/10 02:08:24;;;;;;;14.95;6.47;;;;;;;18.74;63.91;98916.16;5063779;28;20125;-76
2021/06/10 02:10:51;;;;;;;10.38;6.30;;;;;;;18.91;63.44;98909.53;5095236;28;20102;-75
2021/06/10 02:13:27;;;;;;;13.50;6.65;;;;;;;19.14;62.98;98914.81;5040583;28;20109;-75
2021/06/10 02:15:58;;;;;;;33.95;8.05;;;;;;;19.35;62.66;98912.19;5060735;28;20061;-75
2021/06/10 02:18:24;;;;;;;14.68;7.00;;;;;;;19.39;62.61;98899.94;5061313;28;20051;-76
2021/06/10 02:20:50;;;;;;;14.82;7.50;;;;;;;19.21;62.51;98913.06;5076910;28;20121;-76
2021/06/10 02:23:16;;;;;;;15.40;7.22;;;;;;;19.30;62.27;98905.69;5093879;28;20048;-75
2021/06/10 02:25:42;;;;;;;11.35;6.60;;;;;;;19.41;62.27;98906.03;5095212;28;20040;-75
2021/06/10 02:28:08;;;;;;;14.20;6.75;;;;;;;19.56;61.82;98911.41;5060348;28;20044;-77
2021/06/10 02:30:34;;;;;;;15.57;6.60;;;;;;;19.71;61.85;98913.25;5093854;28;20058;-76
2021/06/10 02:33:00;;;;;;;33.42;7.30;;;;;;;19.93;61.32;98909.53;5078029;28;20131;-76
2021/06/10 02:35:26;;;;;;;15.48;6.13;;;;;;;20.19;60.28;98903.50;5093505;28;20491;-76
2021/06/10 02:37:54;;;;;;;10.60;6.28;;;;;;;20.37;59.65;98895.72;5077054;28;20040;-76
2021/06/10 02:40:38;;;;;;;13.45;5.25;;;;;;;20.59;59.02;98899.28;5094785;28;20043;-76
2021/06/10 02:43:05;;;;;;;11.15;5.13;;;;;;;20.72;58.46;98898.53;5043929;28;20530;-77
2021/06/10 02:45:32;;;;;;;12.48;4.80;;;;;;;20.75;57.51;98897.28;5059750;28;20493;-76
2021/06/10 02:47:58;;;;;;;13.80;5.07;;;;;;;20.93;57.33;98911.19;5060031;28;20043;-77
2021/06/10 02:50:25;;;;;;;15.13;5.20;;;;;;;21.04;56.46;98907.91;5059845;28;20147;-77
2021/06/10 02:52:51;;;;;;;8.98;4.57;;;;;;;21.10;55.88;98904.41;5068679;28;20547;-76
2021/06/10 02:55:18;;;;;;;7.57;4.15;;;;;;;21.08;55.40;98908.38;5057325;28;20079;-78
2021/06/10 02:57:52;;;;;;;7.82;4.70;;;;;;;21.12;55.17;98909.63;5040571;28;20158;-76
2021/06/10 03:00:19;;;;;;;10.02;5.30;;;;;;;21.12;55.13;98906.91;5039574;28;20040;-76
2021/06/10 03:02:48;;;;;;;7.03;4.82;;;;;;;21.25;54.78;98911.56;5007118;28;20103;-77
2021/06/10 03:05:14;;;;;;;8.55;5.97;;;;;;;21.28;54.53;98900.28;5040182;28;20135;-77
2021/06/10 03:07:40;;;;;;;11.73;5.72;;;;;;;21.38;54.67;98908.97;5039884;28;20127;-77
2021/06/10 03:10:07;;;;;;;10.63;6.28;;;;;;;21.32;54.35;98918.72;5074125;28;20135;-76
2021/06/10 03:12:34;;;;;;;8.77;6.53;;;;;;;21.38;54.37;98925.25;5023583;28;20092;-75
2021/06/10 03:15:00;;;;;;;11.02;5.60;;;;;;;21.44;54.18;98919.03;5039637;28;20399;-76
2021/06/10 03:17:28;;;;;;;10.05;5.63;;;;;;;21.45;53.49;98920.69;5060867;28;20459;-76
2021/06/10 03:19:53;;;;;;;12.70;5.82;;;;;;;21.43;53.71;98920.06;5055935;28;20044;-75
2021/06/10 03:22:19;;;;;;;11.40;5.22;;;;;;;21.52;53.60;98910.69;5021925;28;20052;-74
2021/06/10 03:24:45;;;;;;;15.27;5.35;;;;;;;21.60;53.21;98906.94;5055909;28;20044;-78
2021/06/10 03:27:11;;;;;;;13.40;5.40;;;;;;;21.63;53.56;98916.59;5039314;28;20059;-75
2021/06/10 03:29:37;;;;;;;13.05;5.35;;;;;;;21.69;52.70;98911.16;5039177;28;20048;-76
2021/06/10 03:32:03;;;;;;;18.40;5.22;;;;;;;21.72;52.76;98908.03;5056087;28;20051;-75
2021/06/10 03:34:29;;;;;;;8.80;3.80;;;;;;;21.79;52.43;98910.75;5039374;28;20040;-84
2021/06/10 03:36:56;;;;;;;5.75;3.88;;;;;;;21.86;51.65;98908.06;5039184;28;20594;-77
2021/06/10 03:39:23;;;;;;;13.68;4.90;;;;;;;21.94;51.76;98914.16;5055858;28;20041;-76
2021/06/10 03:41:50;;;;;;;7.45;3.88;;;;;;;22.00;51.24;98923.34;5039460;28;20071;-78
2021/06/10 03:44:17;;;;;;;25.83;4.38;;;;;;;22.00;51.13;98924.22;5038848;28;20066;-80
2021/06/10 03:46:43;;;;;;;12.13;4.05;;;;;;;21.96;52.03;98931.09;5055687;28;20044;-75
2021/06/10 03:49:12;;;;;;;6.68;4.07;;;;;;;21.94;51.57;98916.03;5072924;28;20047;-83
2021/06/10 03:51:38;;;;;;;10.50;4.38;;;;;;;21.86;51.99;98922.50;5038780;28;20098;-78
2021/06/10 03:54:05;;;;;;;11.48;4.22;;;;;;;21.88;52.06;98925.00;5100864;28;20104;-80
2021/06/10 03:56:31;;;;;;;5.53;4.13;;;;;;;21.85;51.84;98920.81;5095911;28;20039;-78
2021/06/10 03:58:56;;;;;;;14.25;4.32;;;;;;;21.85;52.04;98931.69;5078547;28;20066;-76
2021/06/10 04:01:22;;;;;;;15.35;4.43;;;;;;;21.90;52.19;98929.22;5113647;28;20051;-80
2021/06/10 04:03:48;;;;;;;14.80;5.15;;;;;;;21.82;51.71;98927.53;5078525;28;20130;-76
2021/06/10 04:06:16;;;;;;;19.35;4.93;;;;;;;21.93;51.48;98931.53;5114013;28;20040;-76
2021/06/10 04:08:42;;;;;;;13.05;6.20;;;;;;;21.81;51.52;98930.44;5078841;28;20039;-77
2021/06/10 04:11:08;;;;;;;7.60;5.45;;;;;;;21.77;51.30;98931.88;5095523;28;20074;-77
2021/06/10 04:13:34;;;;;;;9.98;5.47;;;;;;;21.82;51.41;98937.56;5061670;28;20128;-77
2021/06/10 04:16:00;;;;;;;13.43;7.25;;;;;;;22.03;51.70;98942.84;5114077;28;20132;-78
2021/06/10 04:18:26;;;;;;;13.68;5.88;;;;;;;22.07;50.86;98929.66;5113421;28;20498;-75
2021/06/10 04:20:52;;;;;;;6.85;5.18;;;;;;;22.12;50.79;98937.22;5119931;27;20473;-76
2021/06/10 04:23:18;;;;;;;6.80;5.10;;;;;;;22.28;50.00;98934.13;5126029;27;20040;-75
2021/06/10 04:25:44;;;;;;;9.25;5.10;;;;;;;22.07;50.14;98935.94;5115847;27;20041;-75
2021/06/10 04:28:10;;;;;;;8.68;6.00;;;;;;;22.05;50.76;98927.16;5115413;27;20031;-76
2021/06/10 04:30:36;;;;;;;13.18;5.50;;;;;;;22.39;50.66;98932.66;5098479;27;20058;-76
2021/06/10 04:33:02;;;;;;;8.60;5.45;;;;;;;22.55;50.25;98930.34;5132025;27;20126;-77
2021/06/10 04:35:28;;;;;;;5.90;5.18;;;;;;;22.59;50.03;98932.66;5062094;27;20176;-77
2021/06/10 04:37:54;;;;;;;13.43;5.60;;;;;;;22.45;49.95;98918.19;5112948;27;20086;-78
2021/06/10 04:40:20;;;;;;;8.38;5.10;;;;;;;22.65;50.18;98926.38;5112809;27;20078;-77
2021/06/10 04:42:46;;;;;;;8.82;5.00;;;;;;;22.50;48.61;98934.75;5095720;27;20054;-77
2021/06/10 04:45:12;;;;;;;10.68;4.85;;;;;;;22.16;48.60;98931.19;5112616;27;20035;-78
2021/06/10 04:47:38;;;;;;;8.27;4.70;;;;;;;22.33;48.97;98923.44;5113738;28;20118;-76
2021/06/10 04:50:05;;;;;;;12.10;4.85;;;;;;;22.60;49.14;98924.25;5081178;28;20409;-76
2021/06/10 04:52:31;;;;;;;12.60;5.53;;;;;;;22.80;49.30;98926.97;5077803;28;20506;-76
2021/06/10 04:55:23;;;;;;;11.27;5.47;;;;;;;23.02;48.39;98931.16;5094608;28;20074;-75
2021/06/10 04:58:08;;;;;;;10.52;5.15;;;;;;;23.12;47.45;98932.59;5112011;28;20116;-77
2021/06/10 05:00:34;;;;;;;6.80;4.30;;;;;;;23.17;47.08;98933.66;5112735;28;20040;-75
2021/06/10 05:03:00;;;;;;;13.73;5.30;;;;;;;23.25;46.90;98938.03;5112753;28;20040;-76
2021/06/10 05:05:26;;;;;;;12.80;4.90;;;;;;;23.14;47.33;98933.25;5095433;28;20060;-76
2021/06/10 05:07:52;;;;;;;8.38;4.32;;;;;;;23.34;47.14;98919.53;5112881;28;20044;-77
2021/06/10 05:10:18;;;;;;;10.55;5.18;;;;;;;23.12;47.47;98925.25;5113166;28;20482;-77
2021/06/10 05:12:43;;;;;;;18.27;4.68;;;;;;;23.25;47.63;98932.59;5112692;28;20075;-77
2021/06/10 05:15:10;;;;;;;5.45;3.90;;;;;;;23.45;46.26;98938.78;5112903;28;20074;-76
2021/06/10 05:17:35;;;;;;;9.73;4.32;;;;;;;23.47;46.25;98936.69;5113014;28;20218;-77
2021/06/10 05:20:03;;;;;;;9.02;4.13;;;;;;;23.14;47.34;98938.69;5112831;28;20131;-78
2021/06/10 05:22:30;;;;;;;14.52;3.80;;;;;;;23.01;47.11;98925.91;5094768;28;20071;-77
2021/06/10 05:24:56;;;;;;;9.35;4.07;;;;;;;23.30;47.20;98934.66;5111654;28;20094;-76
2021/06/10 05:38:07;;;;;;;19.35;4.43;;;;;;;24.30;45.57;98933.09;5112636;28;20047;-76
2021/06/10 05:41:10;;;;;;;15.20;4.40;;;;;;;24.55;44.32;98940.50;5111716;28;20054;-77
2021/06/10 05:44:13;;;;;;;13.63;4.50;;;;;;;24.54;44.68;98936.09;5112644;28;20130;-76
2021/06/10 05:50:03;;;;;;;7.20;4.20;;;;;;;24.13;45.56;98938.25;5116270;28;20043;-76
2021/06/10 05:56:28;;;;;;;7.13;4.20;;;;;;;24.87;44.68;98930.34;5096570;28;20062;-76
2021/06/10 05:59:31;;;;;;;11.73;3.80;;;;;;;24.95;43.48;98933.59;5080540;28;20048;-77
2021/06/10 06:02:36;;;;;;;8.68;5.03;;;;;;;25.00;43.13;98941.13;5061092;28;20098;-77
2021/06/10 06:08:27;;;;;;;5.35;4.22;;;;;;;25.11;43.00;98943.16;5083372;28;20050;-77
2021/06/10 06:11:16;;;;;;;7.13;3.90;;;;;;;25.06;43.27;98945.69;5096094;28;20051;-76
2021/06/10 06:13:47;;;;;;;4.35;3.90;;;;;;;25.11;42.81;98937.69;5077648;28;20510;-77
2021/06/10 06:16:17;;;;;;;7.90;3.40;;;;;;;24.90;42.46;98940.81;5061792;28;20040;-76
2021/06/10 06:18:44;;;;;;;5.90;3.72;;;;;;;24.89;44.10;98933.66;5078069;28;20082;-76
2021/06/10 06:21:10;;;;;;;8.88;4.10;;;;;;;25.10;43.61;98940.66;5078190;28;20056;-74
2021/06/10 06:23:36;;;;;;;6.30;4.10;;;;;;;25.08;43.41;98942.72;5077310;28;20062;-76
2021/06/10 06:26:02;;;;;;;9.57;4.00;;;;;;;25.29;43.48;98939.59;5095449;28;20073;-76
2021/06/10 06:28:28;;;;;;;9.50;3.65;;;;;;;25.33;43.02;98946.28;5095316;28;20040;-76
2021/06/10 06:30:54;;;;;;;4.47;3.50;;;;;;;25.31;42.89;98942.09;5077620;28;20048;-76
2021/06/10 06:33:19;;;;;;;11.15;3.83;;;;;;;25.58;43.04;98931.69;5095360;28;20040;-77
2021/06/10 06:35:45;;;;;;;8.20;3.60;;;;;;;25.67;41.39;98928.38;5077249;28;20076;-76
2021/06/10 06:38:12;;;;;;;6.93;3.90;;;;;;;25.88;41.18;98937.22;5095310;28;20100;-76
2021/06/10 06:40:38;;;;;;;7.32;3.72;;;;;;;25.59;42.00;98936.09;5077052;28;20040;-77
2021/06/10 06:43:06;;;;;;;9.45;3.40;;;;;;;25.51;42.33;98952.81;5060449;28;20101;-77
2021/06/10 06:45:33;;;;;;;10.95;3.95;;;;;;;25.53;42.39;98948.78;5043691;28;20051;-77
2021/06/10 06:48:00;;;;;;;9.48;3.60;;;;;;;25.38;42.69;98953.78;5060847;28;20449;-77
2021/06/10 06:50:26;;;;;;;9.40;3.42;;;;;;;25.62;42.97;98947.41;5060390;28;20507;-77
2021/06/10 06:52:52;;;;;;;10.38;3.60;;;;;;;25.78;42.52;98936.88;5095047;28;20094;-77
2021/06/10 06:55:18;;;;;;;8.20;3.30;;;;;;;25.89;42.17;98955.31;5074988;28;20097;-77
2021/06/10 06:57:44;;;;;;;9.60;3.70;;;;;;;26.16;41.72;98955.75;5062884;28;20039;-77
2021/06/10 07:00:11;;;;;;;4.97;3.08;;;;;;;26.38;40.97;98959.63;5096457;28;20050;-77
2021/06/10 07:02:37;;;;;;;7.00;3.83;;;;;;;26.46;40.62;98949.44;5096880;28;20043;-76
2021/06/10 07:05:04;;;;;;;5.30;3.30;;;;;;;25.95;41.03;98950.78;5097237;28;20051;-78
2021/06/10 07:07:34;;;;;;;;;;;;;;;26.21;41.06;98961.38;5115285;28;20460;-76
2021/06/10 07:10:05;;;;;;;9.30;3.38;;;;;;;26.51;40.91;98946.81;5096654;28;19935;-76
2021/06/10 07:12:32;;;;;;;4.38;3.30;;;;;;;26.82;40.12;98954.72;5094508;28;20513;-77
2021/06/10 07:15:00;;;;;;;5.03;4.03;;;;;;;26.93;39.73;98960.44;5096450;28;20043;-76
2021/06/10 07:17:29;;;;;;;5.82;2.53;;;;;;;27.00;39.56;98961.16;5078763;28;20055;-76
2021/06/10 07:20:00;;;;;;;6.75;2.80;;;;;;;26.84;39.64;98946.25;5066589;27;20410;-77
2021/06/10 07:22:32;;;;;;;8.27;3.20;;;;;;;26.55;39.61;98948.00;5084708;27;20096;-77
2021/06/10 07:24:59;;;;;;;3.35;2.70;;;;;;;26.77;39.78;98949.09;5066908;27;20043;-78
2021/06/10 07:27:25;;;;;;;5.32;2.97;;;;;;;27.04;39.56;98951.38;5135649;27;20050;-76
2021/06/10 07:29:53;;;;;;;6.00;2.63;;;;;;;27.22;39.42;98948.53;5116517;27;20042;-77
2021/06/10 07:32:19;;;;;;;4.88;2.63;;;;;;;27.58;39.10;98957.56;5135069;27;20045;-77
2021/06/10 07:34:45;;;;;;;6.32;2.65;;;;;;;27.78;38.60;98951.66;5134777;27;20134;-77
2021/06/10 07:37:11;;;;;;;5.05;2.75;;;;;;;27.88;38.41;98945.56;5116423;27;20512;-77
2021/06/10 07:39:37;;;;;;;12.80;3.10;;;;;;;28.16;37.71;98948.28;5066344;27;20043;-76
2021/06/10 07:42:03;;;;;;;5.05;2.42;;;;;;;28.33;37.35;98948.31;5135329;27;20140;-77
2021/06/10 07:44:29;;;;;;;5.55;2.70;;;;;;;28.33;36.95;98951.88;5099391;27;20088;-77
2021/06/10 07:46:55;;;;;;;4.82;2.40;;;;;;;27.92;36.88;98943.97;5134302;27;20051;-76
2021/06/10 07:49:21;;;;;;;5.43;2.22;;;;;;;27.62;37.52;98952.41;5134329;27;20059;-78
2021/06/10 07:51:47;;;;;;;6.95;2.30;;;;;;;27.47;37.92;98955.66;5115806;27;20043;-77
2021/06/10 07:54:13;;;;;;;4.13;2.33;;;;;;;27.22;38.51;98947.69;5115826;27;20061;-76
2021/06/10 07:56:39;;;;;;;2.53;2.00;;;;;;;27.64;38.14;98951.06;5116042;27;20130;-77
2021/06/10 07:59:05;;;;;;;4.30;1.95;;;;;;;27.11;38.17;98947.47;5134350;27;20044;-77
2021/06/10 08:01:31;;;;;;;7.13;2.30;;;;;;;27.06;38.70;98952.81;5115782;27;20078;-76
2021/06/10 08:03:57;;;;;;;4.68;2.30;;;;;;;27.67;38.15;98950.59;5098705;27;20096;-78
2021/06/10 08:06:23;;;;;;;8.38;1.98;;;;;;;28.15;37.54;98937.53;5065692;27;20035;-79
2021/06/10 08:08:49;;;;;;;14.45;2.63;;;;;;;28.66;36.79;98953.03;5115193;27;20389;-77
2021/06/10 08:11:15;;;;;;;7.55;2.08;;;;;;;28.83;35.39;98946.69;5116084;27;20047;-76
2021/06/10 08:13:41;;;;;;;3.15;1.95;;;;;;;28.83;35.99;98952.19;5116096;27;20054;-77
2021/06/10 08:16:07;;;;;;;6.75;2.22;;;;;;;28.70;35.46;98954.19;5134331;27;20031;-77
2021/06/10 08:18:33;;;;;;;3.00;1.95;;;;;;;28.86;35.06;98958.03;5116479;27;20480;-76
2021/06/10 08:20:59;;;;;;;3.95;1.90;;;;;;;29.12;34.99;98953.78;5134527;27;20039;-80
2021/06/10 08:23:25;;;;;;;6.82;1.70;;;;;;;28.97;34.88;98965.34;5098999;27;20043;-80
2021/06/10 08:25:54;;;;;;;2.40;1.80;;;;;;;28.88;35.14;98960.50;5116507;27;20039;-77
2021/06/10 08:28:20;;;;;;;4.15;1.95;;;;;;;29.39;34.30;98947.53;5098634;27;20046;-77
2021/06/10 08:30:45;;;;;;;4.57;2.03;;;;;;;29.51;33.90;98951.00;5133768;27;20403;-77
2021/06/10 08:33:11;;;;;;;3.83;2.10;;;;;;;29.61;34.29;98953.91;5133726;27;20047;-76
2021/06/10 08:35:37;;;;;;;3.05;1.80;;;;;;;29.92;33.59;98944.06;5133476;27;20039;-76
2021/06/10 08:38:06;;;;;;;9.68;1.83;;;;;;;29.87;33.21;98957.81;5081073;27;20497;-78
2021/06/10 08:40:33;;;;;;;6.85;2.10;;;;;;;29.85;33.24;98956.38;5116115;27;20417;-76
2021/06/10 08:42:59;;;;;;;8.70;1.98;;;;;;;30.23;33.06;98955.44;5081696;27;20138;-78
2021/06/10 08:45:27;;;;;;;8.35;1.92;;;;;;;30.62;32.16;98942.31;5081874;27;20073;-77
2021/06/10 08:47:53;;;;;;;10.18;3.15;;;;;;;30.90;32.30;98948.63;5097921;27;20035;-77
2021/06/10 08:50:23;;;;;;;7.38;1.98;;;;;;;30.95;31.70;98951.41;5098065;28;20046;-78
2021/06/10 08:52:56;;;;;;;4.32;1.90;;;;;;;31.09;31.60;98940.75;5115113;27;20046;-78
2021/06/10 08:55:22;;;;;;;3.80;1.90;;;;;;;31.21;31.58;98953.22;5081424;28;20081;-77
2021/06/10 08:57:49;;;;;;;3.65;1.80;;;;;;;31.47;30.97;98947.03;5098223;28;20520;-78
2021/06/10 09:00:15;;;;;;;11.50;1.83;;;;;;;31.47;30.65;98947.88;5133433;28;20401;-78
2021/06/10 09:02:41;;;;;;;2.95;1.92;;;;;;;31.35;30.51;98941.75;5133326;28;20058;-77
2021/06/10 09:05:08;;;;;;;5.13;2.00;;;;;;;31.35;30.89;98955.56;5114762;28;20035;-78
2021/06/10 09:07:35;;;;;;;5.53;2.00;;;;;;;31.42;30.82;98945.09;5098869;28;20121;-78
2021/06/10 09:10:01;;;;;;;12.85;2.03;;;;;;;31.38;31.18;98943.97;5080997;28;20043;-78
2021/06/10 09:12:27;;;;;;;4.75;2.00;;;;;;;30.98;31.55;98942.59;5133021;27;20600;-78
2021/06/10 09:15:09;;;;;;;8.93;2.17;;;;;;;30.87;31.94;98944.44;5114826;28;20414;-79
2021/06/10 09:17:42;;;;;;;8.13;2.80;;;;;;;31.06;31.81;98942.09;5098399;28;20051;-77
2021/06/10 09:20:32;;;;;;;3.88;1.98;;;;;;;30.95;31.62;98943.13;5134380;27;20043;-77
2021/06/10 09:23:12;;;;;;;4.32;2.20;;;;;;;30.96;31.91;98944.81;5085579;27;20039;-77
2021/06/10 09:25:38;;;;;;;7.68;2.20;;;;;;;31.24;31.73;98943.59;5102385;27;20501;-77
2021/06/10 09:28:05;;;;;;;7.35;2.00;;;;;;;31.43;31.51;98944.00;5137310;27;20043;-78
2021/06/10 09:30:33;;;;;;;8.75;1.95;;;;;;;31.78;31.61;98943.28;5102277;27;20182;-77
2021/06/10 09:33:00;;;;;;;16.80;2.35;;;;;;;32.01;31.01;98947.56;5101835;27;20088;-77
2021/06/10 09:35:31;;;;;;;8.63;2.00;;;;;;;32.52;30.45;98941.28;5137008;27;20048;-77
2021/06/10 09:38:02;;;;;;;10.52;2.20;;;;;;;32.60;29.37;98944.34;5101712;27;20375;-77
2021/06/10 09:40:29;;;;;;;4.55;1.80;;;;;;;32.10;30.48;98945.09;5118194;27;20588;-77
2021/06/10 09:42:55;;;;;;;9.63;2.08;;;;;;;31.85;30.98;98948.56;5137269;27;20503;-77
2021/06/10 09:45:24;;;;;;;14.40;2.10;;;;;;;31.65;31.40;98950.16;5136794;27;20043;-78
2021/06/10 09:47:55;;;;;;;11.70;2.20;;;;;;;31.57;31.58;98956.22;5118701;27;20050;-76
2021/06/10 09:50:26;;;;;;;10.88;2.00;;;;;;;31.46;31.56;98950.91;5100331;27;20043;-76
2021/06/10 09:52:57;;;;;;;3.15;1.75;;;;;;;31.31;31.63;98954.44;5136590;27;20485;-77
2021/06/10 09:55:30;;;;;;;3.30;1.88;;;;;;;31.38;31.58;98949.50;5118699;27;20069;-79
2021/06/10 09:58:16;;;;;;;5.07;1.80;;;;;;;31.76;31.23;98952.97;5137550;27;20110;-77
2021/06/10 10:00:45;;;;;;;8.38;2.03;;;;;;;31.92;30.87;98954.72;5119190;27;20055;-78
2021/06/10 10:03:33;;;;;;;9.88;1.98;;;;;;;31.72;31.56;98960.16;5117955;27;20554;-78
2021/06/10 10:06:03;;;;;;;4.60;2.37;;;;;;;31.60;31.50;98955.69;5101533;27;20072;-78
2021/06/10 10:08:29;;;;;;;8.63;2.00;;;;;;;31.55;31.94;98947.34;5119109;27;20047;-78
2021/06/10 10:10:56;;;;;;;6.05;1.73;;;;;;;31.73;31.57;98945.22;5136431;27;20045;-78
2021/06/10 10:13:26;;;;;;;5.97;2.00;;;;;;;31.55;31.58;98954.81;5099851;27;20458;-78
2021/06/10 10:15:52;;;;;;;7.75;1.80;;;;;;;31.78;31.41;98956.28;5116919;27;20118;-79
2021/06/10 10:18:18;;;;;;;5.35;1.88;;;;;;;31.88;31.32;98948.91;5100610;27;20075;-78
2021/06/10 10:20:45;;;;;;;4.25;1.85;;;;;;;32.36;30.69;98949.56;5135432;27;20043;-77
2021/06/10 10:23:11;;;;;;;5.10;1.80;;;;;;;32.53;30.40;98957.59;5117488;27;20101;-78
2021/06/10 10:25:37;;;;;;;11.05;2.25;;;;;;;32.57;30.37;98950.44;5136049;27;20133;-77
2021/06/10 10:28:07;;;;;;;4.95;1.90;;;;;;;32.80;30.67;98942.69;5136460;27;20053;-78
2021/06/10 10:30:33;;;;;;;7.18;1.92;;;;;;;33.89;29.59;98937.44;5067491;27;20039;-78
2021/06/10 10:33:21;;;;;;;10.80;2.05;;;;;;;35.01;28.27;98938.56;5116714;27;20146;-78
2021/06/10 10:35:52;;;;;;;4.95;1.80;;;;;;;35.46;27.48;98926.13;5136170;27;20103;-78
2021/06/10 10:38:21;;;;;;;5.68;2.20;;;;;;;35.73;26.80;98919.13;5083861;27;20514;-77
2021/06/10 10:40:51;;;;;;;5.03;1.73;;;;;;;35.40;27.12;98913.44;5084298;27;20043;-79
2021/06/10 10:43:17;;;;;;;4.40;1.73;;;;;;;36.03;26.34;98917.09;5083974;27;20039;-77
2021/06/10 10:45:45;;;;;;;6.72;1.80;;;;;;;36.67;26.16;98919.16;5100808;27;20047;-78
2021/06/10 10:48:14;;;;;;;6.97;2.17;;;;;;;37.26;25.90;98927.84;5084670;27;20133;-77
2021/06/10 10:50:44;;;;;;;7.68;1.85;;;;;;;37.65;24.97;98934.88;5117509;27;20291;-77
2021/06/10 10:53:18;;;;;;;6.45;1.80;;;;;;;36.60;25.64;98937.41;5135471;27;20039;-77
2021/06/10 10:55:44;;;;;;;8.75;1.90;;;;;;;35.62;25.80;98934.28;5117438;27;20054;-78
2021/06/10 10:58:18;;;;;;;3.78;1.65;;;;;;;35.50;25.82;98930.00;5135761;27;20414;-77
2021/06/10 11:00:51;;;;;;;3.22;1.77;;;;;;;34.69;27.05;98941.91;5067260;27;20066;-78
2021/06/10 11:03:44;;;;;;;7.38;1.63;;;;;;;33.48;28.32;98948.69;5135888;27;20050;-77
2021/06/10 11:06:26;;;;;;;3.95;1.75;;;;;;;33.15;29.11;98939.06;5119166;27;20084;-77
2021/06/10 11:09:14;;;;;;;5.03;1.77;;;;;;;32.39;30.02;98950.94;5116913;27;20039;-78
2021/06/10 11:11:50;;;;;;;11.73;2.35;;;;;;;31.12;34.19;98976.94;5100736;27;20070;-79
2021/06/10 11:14:39;;;;;;;20.15;2.30;;;;;;;29.26;36.64;98952.34;5135719;27;20050;-77
2021/06/10 11:17:17;;;;;;;12.32;2.72;;;;;;;28.49;37.18;98941.19;5117158;27;20047;-78
2021/06/10 11:19:58;;;;;;;24.70;2.38;;;;;;;28.04;37.97;98961.25;5135468;27;20412;-77
2021/06/10 11:22:28;;;;;;;24.70;2.83;;;;;;;27.60;37.41;98969.09;5099952;27;20046;-77
2021/06/10 11:24:54;;;;;;;3.33;1.80;;;;;;;27.16;38.28;98981.59;5100323;27;20087;-77
2021/06/10 11:27:33;;;;;;;18.65;2.00;;;;;;;26.98;38.83;98964.16;5135070;27;20058;-79
2021/06/10 11:30:11;;;;;;;5.57;2.00;;;;;;;26.63;39.61;98969.63;5135600;27;20134;-80
2021/06/10 11:33:22;;;;;;;10.32;2.30;;;;;;;26.16;39.36;98970.28;5134715;27;20044;-77
2021/06/10 11:36:01;;;;;;;8.20;1.90;;;;;;;25.60;40.77;98978.81;4998830;28;20533;-77
2021/06/10 11:38:29;;;;;;;17.35;3.47;;;;;;;25.56;42.28;98985.81;5063931;27;20063;-78
2021/06/10 11:40:55;;;;;;;10.82;2.30;;;;;;;25.49;42.77;98993.25;5116676;27;20055;-77
2021/06/10 11:43:22;;;;;;;7.38;2.60;;;;;;;25.37;44.72;98974.84;5133860;27;20039;-76
2021/06/10 11:45:49;;;;;;;15.38;3.42;;;;;;;25.15;46.22;98966.25;5116932;27;20039;-77
2021/06/10 11:48:40;;;;;;;7.38;4.35;;;;;;;24.61;48.92;98965.03;5099454;27;20039;-77
2021/06/10 11:51:08;;;;;;;19.10;4.85;;;;;;;24.33;50.02;98959.13;5083971;27;20039;-77
2021/06/10 11:53:34;;;;;;;11.27;4.90;;;;;;;24.16;49.78;98951.47;5082170;27;20039;-78
2021/06/10 11:56:00;;;;;;;21.10;5.57;;;;;;;24.13;50.35;98953.81;5082393;27;20047;-78
2021/06/10 11:58:27;;;;;;;21.83;5.85;;;;;;;24.05;50.21;98954.06;5134689;27;20481;-78
2021/06/10 12:00:54;;;;;;;11.40;6.47;;;;;;;24.08;50.22;98970.03;5081895;27;20043;-78
2021/06/10 12:03:21;;;;;;;14.48;9.65;;;;;;;23.97;50.61;98969.66;5116162;27;20089;-77
2021/06/10 12:05:55;;;;;;;19.25;13.52;;;;;;;23.80;50.31;98973.94;5134365;27;20091;-77